Time;durP1;ratioP1;P1;durP2;ratioP2;P2;SDS_P1;SDS_P2;PMS_P1;PMS_P2;Temp;Humidity;BMP_temperature;BMP_pressure;BME280_temperature;BME280_humidity;BME280_pressure;Samples;Min_cycle;Max_cycle;Signal;HPM_P1;HPM_P2
2021/07/03 00:01:06;;;;;;;1.50;1.40;;;;;;;19.33;100.00;95750.09;5028513;28;20631;-84
2021/07/03 00:03:34;;;;;;;1.90;1.80;;;;;;;19.21;100.00;95752.69;5028518;28;20255;-84
2021/07/03 00:06:01;;;;;;;1.57;1.47;;;;;;;19.16;100.00;95739.25;5032159;28;20226;-83
2021/07/03 00:08:28;;;;;;;2.93;1.03;;;;;;;19.15;100.00;95760.78;5031906;28;20243;-83
2021/07/03 00:10:59;;;;;;;3.53;1.43;;;;;;;19.13;100.00;95754.88;5031604;28;20203;-84
2021/07/03 00:13:26;;;;;;;1.50;1.40;;;;;;;19.14;100.00;95759.97;5031818;28;20245;-84
2021/07/03 00:15:54;;;;;;;1.13;1.07;;;;;;;19.09;100.00;95741.19;5031693;28;20252;-84
2021/07/03 00:18:21;;;;;;;1.50;1.27;;;;;;;19.01;100.00;95762.78;5031726;28;20671;-84
2021/07/03 00:20:49;;;;;;;1.47;1.37;;;;;;;18.97;100.00;95766.94;5031577;28;20202;-84
2021/07/03 00:23:16;;;;;;;1.63;1.53;;;;;;;18.95;100.00;95769.03;5031702;28;20206;-84
2021/07/03 00:25:44;;;;;;;1.43;1.33;;;;;;;18.98;100.00;95771.22;5031610;28;20194;-84
2021/07/03 00:28:14;;;;;;;1.53;1.27;;;;;;;18.93;100.00;95763.09;5031519;28;20251;-84
2021/07/03 00:30:41;;;;;;;1.30;1.20;;;;;;;18.87;100.00;95766.66;5031445;28;20194;-85
2021/07/03 00:33:08;;;;;;;2.47;1.30;;;;;;;18.96;100.00;95765.34;5031636;28;20210;-84
2021/07/03 00:35:36;;;;;;;3.03;1.20;;;;;;;18.98;100.00;95771.22;5031424;28;20202;-84
2021/07/03 00:38:04;;;;;;;1.10;1.00;;;;;;;18.89;100.00;95764.59;5031460;28;20199;-84
2021/07/03 00:40:31;;;;;;;1.40;1.30;;;;;;;18.97;100.00;95764.28;5031214;28;20707;-84
2021/07/03 00:42:59;;;;;;;1.20;1.07;;;;;;;18.92;100.00;95774.81;5031429;28;20198;-84
2021/07/03 00:45:28;;;;;;;1.20;1.20;;;;;;;18.88;100.00;95769.13;5031334;28;20242;-84
2021/07/03 00:47:55;;;;;;;2.43;1.10;;;;;;;18.91;100.00;95773.16;5031123;28;20237;-84
2021/07/03 00:50:22;;;;;;;2.80;1.00;;;;;;;18.90;100.00;95769.69;5031574;28;20226;-84
2021/07/03 00:52:50;;;;;;;1.33;1.07;;;;;;;18.90;100.00;95767.03;5031526;28;20228;-84
2021/07/03 00:55:18;;;;;;;1.23;1.13;;;;;;;18.97;100.00;95757.09;5030978;28;20287;-84
2021/07/03 00:57:46;;;;;;;1.23;1.13;;;;;;;18.93;100.00;95755.13;5031004;28;20203;-84
2021/07/03 01:00:15;;;;;;;1.37;1.30;;;;;;;18.85;100.00;95766.88;5031174;28;20222;-84
2021/07/03 01:02:44;;;;;;;1.20;1.10;;;;;;;18.75;100.00;95763.94;5031081;28;20198;-84
2021/07/03 01:05:12;;;;;;;2.50;1.43;;;;;;;18.70;100.00;95750.44;5031029;28;20339;-84
2021/07/03 01:07:39;;;;;;;1.77;1.40;;;;;;;18.74;100.00;95747.16;5030993;28;20282;-84
2021/07/03 01:10:17;;;;;;;3.87;1.30;;;;;;;18.83;100.00;95752.97;5030583;28;20290;-84
2021/07/03 01:12:45;;;;;;;2.87;1.30;;;;;;;18.70;100.00;95756.59;5031656;28;20197;-83
2021/07/03 01:15:13;;;;;;;3.70;1.20;;;;;;;18.68;100.00;95739.22;5030857;28;20199;-83
2021/07/03 01:17:40;;;;;;;1.80;1.00;;;;;;;18.71;100.00;95736.94;5030841;28;20202;-83
2021/07/03 01:20:11;;;;;;;1.40;1.00;;;;;;;18.68;100.00;95736.53;5030410;28;20233;-84
2021/07/03 01:22:40;;;;;;;1.10;1.10;;;;;;;18.67;100.00;95734.91;5030960;28;20187;-84
2021/07/03 01:25:09;;;;;;;1.30;1.20;;;;;;;18.67;100.00;95733.06;5030668;28;20202;-83
2021/07/03 01:27:38;;;;;;;1.20;1.20;;;;;;;18.63;100.00;95736.38;5031067;28;20207;-83
2021/07/03 01:30:08;;;;;;;3.93;1.13;;;;;;;18.60;100.00;95750.13;5030388;28;20195;-83
2021/07/03 01:32:35;;;;;;;1.10;1.00;;;;;;;18.46;100.00;95747.63;5030721;28;20251;-83
2021/07/03 01:35:02;;;;;;;1.20;1.10;;;;;;;18.46;100.00;95737.00;5030716;28;20195;-83
2021/07/03 01:37:29;;;;;;;1.10;1.10;;;;;;;18.43;100.00;95731.28;5030636;28;20271;-83
2021/07/03 01:39:58;;;;;;;0.97;0.87;;;;;;;18.33;100.00;95729.13;5030338;28;20658;-83
2021/07/03 01:42:26;;;;;;;1.43;1.20;;;;;;;18.28;100.00;95719.13;5030505;28;20199;-84
2021/07/03 01:44:54;;;;;;;2.10;1.00;;;;;;;18.45;100.00;95716.72;5030272;28;20230;-85
2021/07/03 01:47:21;;;;;;;1.40;1.30;;;;;;;18.31;100.00;95715.22;5030477;28;20230;-84
2021/07/03 01:49:48;;;;;;;1.13;1.00;;;;;;;18.36;100.00;95717.22;5030047;28;20203;-83
2021/07/03 01:52:17;;;;;;;1.30;1.20;;;;;;;18.35;100.00;95708.44;5031002;28;20373;-84
2021/07/03 01:54:45;;;;;;;1.70;1.33;;;;;;;18.35;100.00;95700.44;5030190;28;20671;-83
2021/07/03 01:57:14;;;;;;;1.10;1.10;;;;;;;18.41;100.00;95701.44;5030262;28;20203;-83
2021/07/03 01:59:42;;;;;;;1.50;0.90;;;;;;;18.36;100.00;95691.47;5029817;28;20219;-84
2021/07/03 02:02:09;;;;;;;1.20;1.20;;;;;;;18.34;100.00;95685.53;5030365;28;20219;-84
2021/07/03 02:04:36;;;;;;;1.80;1.10;;;;;;;18.19;100.00;95677.91;5030380;28;20230;-83
2021/07/03 02:07:04;;;;;;;1.07;1.07;;;;;;;18.15;100.00;95667.91;5030083;28;20232;-84
2021/07/03 02:09:31;;;;;;;1.57;1.10;;;;;;;18.16;100.00;95657.06;5030018;28;20282;-83
2021/07/03 02:11:59;;;;;;;1.00;1.00;;;;;;;18.15;100.00;95662.59;5026594;28;20257;-83
2021/07/03 02:14:27;;;;;;;1.10;1.10;;;;;;;18.19;100.00;95653.16;5029889;28;20206;-83
2021/07/03 02:16:55;;;;;;;1.20;1.10;;;;;;;18.08;100.00;95641.44;5029654;28;20301;-84
2021/07/03 02:19:22;;;;;;;1.00;1.00;;;;;;;18.15;100.00;95642.16;5029456;28;20313;-84
2021/07/03 02:21:49;;;;;;;2.53;1.10;;;;;;;18.10;100.00;95634.03;5029994;28;20231;-83
2021/07/03 02:24:17;;;;;;;1.10;1.00;;;;;;;18.19;100.00;95645.19;5029361;28;20236;-83
2021/07/03 02:26:44;;;;;;;1.40;1.30;;;;;;;18.16;100.00;95637.66;5028967;28;20346;-83
2021/07/03 02:29:12;;;;;;;7.23;1.20;;;;;;;18.26;100.00;95640.63;5029445;28;20198;-83
2021/07/03 02:31:40;;;;;;;2.43;1.00;;;;;;;18.27;100.00;95656.34;5029375;28;20281;-84
2021/07/03 02:34:07;;;;;;;1.30;1.07;;;;;;;18.07;100.00;95653.06;5028934;28;20387;-84
2021/07/03 02:36:35;;;;;;;1.07;1.07;;;;;;;18.04;100.00;95653.50;5029429;28;20202;-84
2021/07/03 02:39:02;;;;;;;1.70;1.47;;;;;;;17.94;100.00;95639.91;5029249;28;20282;-84
2021/07/03 02:41:29;;;;;;;1.60;1.10;;;;;;;17.93;100.00;95638.28;5029585;28;20209;-83
2021/07/03 02:43:59;;;;;;;1.80;1.17;;;;;;;17.85;100.00;95635.94;5029670;28;20339;-83
2021/07/03 02:46:26;;;;;;;1.03;1.03;;;;;;;17.91;100.00;95646.50;5029223;28;20209;-83
2021/07/03 02:48:55;;;;;;;1.40;1.30;;;;;;;17.94;100.00;95646.06;5029012;28;20750;-83
2021/07/03 02:51:22;;;;;;;1.37;1.20;;;;;;;17.93;100.00;95654.25;5029631;28;20560;-83
2021/07/03 02:53:49;;;;;;;3.60;1.30;;;;;;;17.99;100.00;95648.06;5029083;28;20235;-84
2021/07/03 02:56:16;;;;;;;1.77;1.20;;;;;;;18.08;100.00;95656.53;5029318;28;20221;-84
2021/07/03 02:58:44;;;;;;;1.20;1.20;;;;;;;18.15;100.00;95678.56;5029170;28;20293;-84
2021/07/03 03:01:11;;;;;;;1.33;1.23;;;;;;;18.17;100.00;95695.94;5029317;28;20244;-84
2021/07/03 03:03:42;;;;;;;1.33;1.30;;;;;;;18.22;100.00;95684.63;5028961;28;20209;-84
2021/07/03 03:06:11;;;;;;;2.50;1.10;;;;;;;18.29;100.00;95702.16;5029375;28;20187;-83
2021/07/03 03:08:39;;;;;;;1.00;1.00;;;;;;;18.37;100.00;95717.03;5028803;28;20249;-83
2021/07/03 03:11:06;;;;;;;1.30;1.27;;;;;;;18.40;100.00;95723.75;5028925;28;20238;-84
2021/07/03 03:13:33;;;;;;;1.03;1.00;;;;;;;18.28;100.00;95721.00;5029077;28;20203;-84
2021/07/03 03:16:01;;;;;;;2.17;1.40;;;;;;;18.28;100.00;95716.47;5028962;28;20198;-83
2021/07/03 03:18:28;;;;;;;1.10;1.10;;;;;;;18.26;100.00;95718.56;5028851;28;20264;-83
2021/07/03 03:20:55;;;;;;;1.77;1.50;;;;;;;18.18;100.00;95700.22;5028737;28;20319;-84
2021/07/03 03:23:24;;;;;;;2.53;1.40;;;;;;;18.16;100.00;95702.28;5028763;28;20295;-84
2021/07/03 03:25:52;;;;;;;2.80;1.10;;;;;;;18.19;100.00;95709.84;5029120;28;20289;-85
2021/07/03 03:28:19;;;;;;;2.60;1.47;;;;;;;18.15;100.00;95713.97;5028583;28;20202;-85
2021/07/03 03:30:46;;;;;;;1.43;1.10;;;;;;;18.13;100.00;95720.53;5028545;28;20195;-84
2021/07/03 03:33:14;;;;;;;1.40;1.30;;;;;;;18.10;100.00;95719.13;5028718;28;20206;-83
2021/07/03 03:35:41;;;;;;;1.50;1.13;;;;;;;18.00;100.00;95700.19;5028356;28;20207;-85
2021/07/03 03:38:08;;;;;;;1.50;1.40;;;;;;;18.04;100.00;95698.72;5029138;28;20207;-86
2021/07/03 03:40:39;;;;;;;5.20;1.30;;;;;;;18.21;100.00;95704.28;5031631;28;20226;-86
2021/07/03 03:43:06;;;;;;;1.73;1.50;;;;;;;18.12;100.00;95709.09;5032433;28;20282;-86
2021/07/03 03:45:34;;;;;;;4.33;1.20;;;;;;;18.11;100.00;95706.63;5032178;28;20201;-85
2021/07/03 03:48:01;;;;;;;1.50;1.40;;;;;;;18.13;100.00;95713.38;5032153;28;20691;-86
2021/07/03 03:50:28;;;;;;;1.20;1.20;;;;;;;18.24;100.00;95720.63;5032122;27;20691;-86
2021/07/03 03:52:56;;;;;;;4.73;1.33;;;;;;;18.17;100.00;95719.88;5032232;28;20273;-85
2021/07/03 03:55:23;;;;;;;1.50;1.40;;;;;;;18.08;100.00;95710.56;5031634;28;20281;-85
2021/07/03 03:57:52;;;;;;;1.40;1.30;;;;;;;18.06;100.00;95699.31;5032228;28;20240;-86
2021/07/03 04:00:20;;;;;;;1.40;1.30;;;;;;;18.03;100.00;95697.09;5031854;28;20222;-86
2021/07/03 04:02:48;;;;;;;1.40;1.30;;;;;;;18.02;100.00;95695.47;5032169;28;20242;-85
2021/07/03 04:05:16;;;;;;;3.27;1.77;;;;;;;17.97;100.00;95692.66;5032032;28;20694;-85
2021/07/03 04:07:43;;;;;;;1.50;1.40;;;;;;;18.02;100.00;95693.63;5032130;28;20191;-85
2021/07/03 04:10:13;;;;;;;2.50;1.50;;;;;;;18.06;100.00;95688.69;5031695;28;20191;-85
2021/07/03 04:12:41;;;;;;;1.83;1.70;;;;;;;18.02;100.00;95683.00;5032033;28;20256;-86
2021/07/03 04:15:12;;;;;;;1.70;1.60;;;;;;;18.12;100.00;95690.47;5031732;28;20743;-86
2021/07/03 04:17:40;;;;;;;1.40;1.30;;;;;;;18.12;100.00;95687.81;5031929;28;20190;-84
2021/07/03 04:20:09;;;;;;;1.80;1.67;;;;;;;18.23;100.00;95691.59;5031299;28;20287;-83
2021/07/03 04:22:36;;;;;;;1.60;1.50;;;;;;;18.27;100.00;95692.78;5031891;28;20630;-84
2021/07/03 04:25:04;;;;;;;3.20;1.37;;;;;;;18.26;100.00;95696.47;5031837;28;20206;-84
2021/07/03 04:27:42;;;;;;;;;;;;;;;;;;;;;
2021/07/03 04:30:15;;;;;;;1.80;1.50;;;;;;;18.27;100.00;95708.72;5030032;28;20704;-83
2021/07/03 04:32:42;;;;;;;1.30;1.20;;;;;;;18.28;100.00;95703.19;5031990;28;20203;-83
2021/07/03 04:35:11;;;;;;;2.37;1.70;;;;;;;18.35;100.00;95689.00;5031471;28;20236;-83
2021/07/03 04:37:39;;;;;;;2.17;1.80;;;;;;;18.38;100.00;95672.59;5031707;28;20606;-83
2021/07/03 04:40:08;;;;;;;2.23;2.10;;;;;;;18.30;100.00;95671.06;5030919;28;20219;-83
2021/07/03 04:42:36;;;;;;;3.00;1.43;;;;;;;18.35;100.00;95662.41;5031412;28;20238;-83
2021/07/03 04:45:04;;;;;;;1.47;1.37;;;;;;;18.45;100.00;95662.69;5031134;28;20663;-82
2021/07/03 04:47:32;;;;;;;1.97;1.83;;;;;;;18.47;100.00;95671.28;5031100;28;20213;-84
2021/07/03 04:50:00;;;;;;;1.63;1.53;;;;;;;18.52;100.00;95658.09;5030719;28;20199;-83
2021/07/03 04:52:28;;;;;;;3.80;2.20;;;;;;;18.58;100.00;95653.75;5031367;28;20584;-83
2021/07/03 04:54:56;;;;;;;2.07;1.97;;;;;;;18.53;100.00;95660.56;5030716;28;20241;-83
2021/07/03 04:57:23;;;;;;;1.73;1.47;;;;;;;18.63;100.00;95656.53;5031050;28;20260;-83
2021/07/03 04:59:50;;;;;;;1.83;1.73;;;;;;;18.74;100.00;95653.97;5030493;28;20194;-83
2021/07/03 05:02:18;;;;;;;1.50;1.40;;;;;;;18.83;100.00;95659.78;5031144;28;20275;-83
2021/07/03 05:04:46;;;;;;;1.70;1.60;;;;;;;18.86;100.00;95650.53;5030905;28;20234;-83
2021/07/03 05:07:14;;;;;;;1.63;1.53;;;;;;;18.94;100.00;95668.88;5030737;28;20787;-83
2021/07/03 05:09:41;;;;;;;1.70;1.60;;;;;;;18.96;100.00;95672.13;5030809;28;20203;-82
2021/07/03 05:12:09;;;;;;;1.67;1.57;;;;;;;18.99;100.00;95683.13;5030819;28;20671;-81
2021/07/03 05:14:36;;;;;;;2.00;1.57;;;;;;;19.20;100.00;95697.00;5030621;28;20766;-81
2021/07/03 05:17:04;;;;;;;2.33;1.67;;;;;;;19.25;100.00;95700.59;5030610;28;20206;-82
2021/07/03 05:19:31;;;;;;;1.90;1.70;;;;;;;19.34;100.00;95721.59;5030619;28;20199;-82
2021/07/03 05:22:00;;;;;;;2.83;1.77;;;;;;;19.44;100.00;95727.19;5030833;28;20263;-81
2021/07/03 05:24:27;;;;;;;2.53;2.23;;;;;;;19.64;100.00;95718.91;5030216;28;20206;-82
2021/07/03 05:26:55;;;;;;;1.50;1.40;;;;;;;19.74;100.00;95735.16;5031101;28;20213;-82
2021/07/03 05:29:22;;;;;;;2.53;1.30;;;;;;;19.89;100.00;95737.41;5030411;28;20191;-82
2021/07/03 05:31:51;;;;;;;2.40;1.50;;;;;;;19.99;100.00;95743.00;5030383;28;20252;-83
2021/07/03 05:34:18;;;;;;;2.40;1.50;;;;;;;20.12;100.00;95740.06;5030406;28;20205;-82
2021/07/03 05:36:47;;;;;;;1.70;1.60;;;;;;;20.25;100.00;95746.25;5030722;28;20194;-82
2021/07/03 05:39:16;;;;;;;4.07;2.87;;;;;;;20.42;100.00;95763.19;5030540;28;20283;-82
2021/07/03 05:41:43;;;;;;;1.60;1.50;;;;;;;20.53;100.00;95797.09;5030433;28;20222;-82
2021/07/03 05:44:10;;;;;;;1.33;1.20;;;;;;;20.82;100.00;95786.53;5030396;28;20245;-83
2021/07/03 05:46:37;;;;;;;1.40;1.30;;;;;;;20.83;100.00;95796.97;5030450;28;20195;-82
2021/07/03 05:49:05;;;;;;;2.83;1.30;;;;;;;20.83;100.00;95820.19;5030323;28;20240;-82
2021/07/03 05:51:32;;;;;;;5.17;1.70;;;;;;;20.87;100.00;95829.38;5030238;28;20580;-82
2021/07/03 05:54:00;;;;;;;1.70;1.60;;;;;;;20.97;100.00;95823.44;5030174;28;20295;-82
2021/07/03 05:56:28;;;;;;;4.70;2.07;;;;;;;21.05;100.00;95842.56;5030334;28;20238;-83
2021/07/03 05:58:56;;;;;;;6.63;2.57;;;;;;;21.13;100.00;95854.78;5030292;28;20360;-82
2021/07/03 06:01:26;;;;;;;1.60;1.50;;;;;;;21.31;100.00;95851.94;5029192;28;20230;-83
2021/07/03 06:03:53;;;;;;;1.60;1.50;;;;;;;21.25;100.00;95857.41;5030082;28;20238;-82
2021/07/03 06:06:20;;;;;;;4.53;1.30;;;;;;;21.39;100.00;95853.47;5030608;28;20281;-83
2021/07/03 06:08:48;;;;;;;1.77;1.67;;;;;;;21.53;100.00;95856.69;5030515;28;20313;-83
2021/07/03 06:11:16;;;;;;;3.10;1.87;;;;;;;21.50;100.00;95865.16;5030205;28;20230;-83
2021/07/03 06:13:47;;;;;;;2.83;2.00;;;;;;;21.66;100.00;95863.63;5029669;28;20238;-83
2021/07/03 06:16:15;;;;;;;2.13;1.70;;;;;;;21.74;100.00;95869.38;5030062;28;20195;-83
2021/07/03 06:18:42;;;;;;;2.13;2.00;;;;;;;21.72;100.00;95865.34;5030245;28;20203;-82
2021/07/03 06:21:10;;;;;;;4.63;1.60;;;;;;;21.82;100.00;95862.84;5029605;28;20650;-83
2021/07/03 06:23:37;;;;;;;6.60;2.27;;;;;;;21.81;100.00;95866.56;5029900;28;20238;-82
2021/07/03 06:26:05;;;;;;;2.03;1.80;;;;;;;21.98;100.00;95867.44;5029858;28;20209;-83
2021/07/03 06:28:33;;;;;;;2.23;2.00;;;;;;;22.14;100.00;95867.72;5029567;28;20210;-82
2021/07/03 06:31:02;;;;;;;1.70;1.60;;;;;;;22.15;100.00;95878.19;5029777;28;20281;-83
2021/07/03 06:33:30;;;;;;;1.83;1.73;;;;;;;22.11;100.00;95887.75;5029608;28;20199;-83
2021/07/03 06:35:57;;;;;;;5.63;2.10;;;;;;;22.09;100.00;95903.22;5030032;28;20304;-82
2021/07/03 06:38:24;;;;;;;2.47;2.27;;;;;;;22.07;100.00;95906.13;5029336;28;20201;-82
2021/07/03 06:40:52;;;;;;;3.47;2.23;;;;;;;22.04;100.00;95903.94;5029552;28;20269;-82
2021/07/03 06:43:19;;;;;;;3.43;2.30;;;;;;;22.19;100.00;95903.44;5029404;28;20198;-83
2021/07/03 06:45:46;;;;;;;5.07;2.50;;;;;;;22.47;100.00;95901.75;5029501;28;20281;-83
2021/07/03 06:48:16;;;;;;;2.40;2.20;;;;;;;22.61;100.00;95907.63;5029555;28;20290;-83
2021/07/03 06:50:46;;;;;;;3.80;2.17;;;;;;;22.52;100.00;95921.41;5029410;28;20198;-83
2021/07/03 06:53:13;;;;;;;2.13;1.93;;;;;;;22.53;100.00;95923.03;5029394;28;20199;-83
2021/07/03 06:55:41;;;;;;;1.60;1.50;;;;;;;22.75;100.00;95931.16;5029171;28;20234;-83
2021/07/03 06:58:08;;;;;;;1.53;1.43;;;;;;;22.71;100.00;95931.88;5029759;28;20560;-83
2021/07/03 07:00:38;;;;;;;3.03;1.53;;;;;;;22.67;100.00;95931.56;5029280;28;20207;-82
2021/07/03 07:03:06;;;;;;;3.60;1.73;;;;;;;22.65;100.00;95936.34;5030010;28;20291;-83
2021/07/03 07:05:35;;;;;;;2.20;1.60;;;;;;;22.89;100.00;95942.34;5028988;28;20203;-83
2021/07/03 07:08:02;;;;;;;1.73;1.63;;;;;;;22.92;100.00;95936.53;5029282;28;20282;-83
2021/07/03 07:10:29;;;;;;;1.67;1.57;;;;;;;23.04;100.00;95939.16;5029230;28;20281;-83
2021/07/03 07:12:56;;;;;;;1.50;1.40;;;;;;;23.00;100.00;95935.34;5029115;28;20203;-82
2021/07/03 07:15:24;;;;;;;1.50;1.40;;;;;;;22.98;100.00;95943.59;5029069;28;20281;-83
2021/07/03 07:17:51;;;;;;;1.80;1.70;;;;;;;22.88;100.00;95959.50;5029058;28;20202;-84
2021/07/03 07:20:18;;;;;;;3.00;1.70;;;;;;;23.09;100.00;95967.88;5029060;28;20204;-83
2021/07/03 07:22:47;;;;;;;1.53;1.43;;;;;;;23.15;100.00;95972.28;5029071;28;20309;-83
2021/07/03 07:25:14;;;;;;;2.60;1.47;;;;;;;23.27;100.00;95965.75;5029025;28;20201;-83
2021/07/03 07:27:42;;;;;;;3.93;1.47;;;;;;;23.11;100.00;95963.91;5028885;28;20635;-83
2021/07/03 07:30:10;;;;;;;1.47;1.37;;;;;;;23.06;100.00;95971.06;5029191;28;20281;-84
2021/07/03 07:32:37;;;;;;;1.63;1.53;;;;;;;23.16;100.00;95969.34;5029338;28;20217;-83
2021/07/03 07:35:06;;;;;;;1.90;1.70;;;;;;;23.01;100.00;95979.84;5028828;28;20202;-83
2021/07/03 07:37:33;;;;;;;1.70;1.60;;;;;;;23.13;100.00;95977.88;5028704;28;20203;-83
2021/07/03 07:40:02;;;;;;;2.00;1.80;;;;;;;23.22;100.00;95983.63;5028725;28;20230;-83
2021/07/03 07:42:29;;;;;;;1.60;1.50;;;;;;;23.50;100.00;95988.88;5028736;28;20230;-83
2021/07/03 07:44:57;;;;;;;3.30;1.53;;;;;;;23.54;100.00;95996.44;5029030;28;20267;-84
2021/07/03 07:47:25;;;;;;;2.07;1.30;;;;;;;23.50;100.00;95999.59;5028835;28;20199;-84
2021/07/03 07:49:52;;;;;;;2.63;1.53;;;;;;;23.82;100.00;96007.03;5028408;28;20249;-83
2021/07/03 07:52:19;;;;;;;2.10;1.57;;;;;;;23.81;100.00;96005.44;5029036;28;20295;-83
2021/07/03 07:54:47;;;;;;;1.90;1.50;;;;;;;23.88;100.00;96000.69;5028443;28;20241;-83
2021/07/03 07:57:16;;;;;;;1.80;1.57;;;;;;;23.93;100.00;96016.03;5028778;28;20237;-83
2021/07/03 07:59:43;;;;;;;1.40;1.30;;;;;;;23.86;100.00;96016.22;5028565;28;20285;-84
2021/07/03 08:02:11;;;;;;;1.80;1.50;;;;;;;23.78;100.00;96019.34;5028599;28;20218;-83
2021/07/03 08:04:38;;;;;;;3.60;1.70;;;;;;;23.98;100.00;96018.00;5028429;28;20289;-84
2021/07/03 08:07:05;;;;;;;5.07;2.20;;;;;;;23.91;100.00;96024.34;5028957;28;20277;-84
2021/07/03 08:09:33;;;;;;;1.97;1.70;;;;;;;24.01;100.00;96028.22;5028189;28;20667;-84
2021/07/03 08:12:00;;;;;;;3.47;1.60;;;;;;;23.95;100.00;96022.78;5028561;28;20199;-83
2021/07/03 08:14:29;;;;;;;2.47;1.60;;;;;;;24.26;100.00;96019.66;5028721;28;20230;-84
2021/07/03 08:16:56;;;;;;;1.93;1.63;;;;;;;24.28;100.00;96018.34;5028195;28;20646;-83
2021/07/03 08:19:24;;;;;;;3.20;1.60;;;;;;;24.43;100.00;96018.53;5028317;28;20237;-84
2021/07/03 08:21:57;;;;;;;2.00;1.80;;;;;;;24.60;100.00;96012.28;5028397;28;20225;-84
2021/07/03 08:24:24;;;;;;;1.70;1.60;;;;;;;24.29;100.00;96024.53;5028302;28;20187;-83
2021/07/03 08:26:51;;;;;;;2.03;1.93;;;;;;;24.29;100.00;96029.91;5031480;28;20294;-84
2021/07/03 08:29:19;;;;;;;2.73;1.70;;;;;;;24.70;100.00;96024.97;5031558;28;20199;-84
2021/07/03 08:31:47;;;;;;;2.13;1.97;;;;;;;25.15;100.00;96013.88;5031837;28;20248;-84
2021/07/03 08:34:15;;;;;;;2.27;1.87;;;;;;;25.20;100.00;96035.41;5031755;28;20384;-83
2021/07/03 08:36:42;;;;;;;1.50;1.40;;;;;;;25.30;100.00;96019.38;5031702;28;20293;-84
2021/07/03 08:39:09;;;;;;;2.10;1.90;;;;;;;25.35;100.00;96026.66;5031362;28;20627;-84
2021/07/03 08:41:39;;;;;;;2.03;1.93;;;;;;;24.40;100.00;96032.47;5031572;28;20227;-84
2021/07/03 08:44:08;;;;;;;1.60;1.50;;;;;;;23.99;100.00;96031.16;5031323;28;20259;-84
2021/07/03 08:46:37;;;;;;;1.70;1.60;;;;;;;23.87;100.00;96030.47;5031609;28;20659;-84
2021/07/03 08:49:06;;;;;;;4.23;1.70;;;;;;;24.19;100.00;96031.41;5031278;28;20290;-84
2021/07/03 08:51:33;;;;;;;1.60;1.50;;;;;;;24.52;100.00;96036.88;5031477;28;20195;-84
2021/07/03 08:54:04;;;;;;;1.60;1.50;;;;;;;24.78;100.00;96036.09;5030778;28;20245;-83
2021/07/03 08:56:31;;;;;;;2.17;1.60;;;;;;;25.04;100.00;96039.00;5031752;28;20248;-84
2021/07/03 08:58:58;;;;;;;2.73;1.80;;;;;;;25.38;100.00;96036.91;5031478;28;20237;-84
2021/07/03 09:01:26;;;;;;;1.90;1.80;;;;;;;25.43;100.00;96036.16;5031220;28;20226;-84
2021/07/03 09:03:54;;;;;;;2.15;2.05;;;;;;;25.41;100.00;96022.13;5030852;28;20209;-84
2021/07/03 09:06:33;;;;;;;3.35;2.60;;;;;;;25.30;100.00;96035.50;5031650;28;20222;-84
2021/07/03 09:09:01;;;;;;;15.60;6.23;;;;;;;25.09;100.00;96039.06;5031330;28;20278;-84
2021/07/03 09:11:28;;;;;;;8.88;4.93;;;;;;;24.49;100.00;96035.53;5031156;28;20285;-84
2021/07/03 09:14:01;;;;;;;5.80;3.00;;;;;;;24.68;100.00;96028.75;5030754;28;20209;-84
2021/07/03 09:16:33;;;;;;;2.80;2.27;;;;;;;24.75;100.00;96022.34;5031173;28;20274;-84
2021/07/03 09:19:01;;;;;;;1.77;1.57;;;;;;;25.03;100.00;96027.44;5030843;28;20689;-84
2021/07/03 09:21:29;;;;;;;2.17;1.70;;;;;;;25.23;100.00;96020.66;5031442;28;20231;-84
2021/07/03 09:23:58;;;;;;;3.22;2.20;;;;;;;25.45;100.00;96013.28;5030766;28;20264;-85
2021/07/03 09:26:26;;;;;;;2.65;1.80;;;;;;;25.12;100.00;96011.69;5030867;28;20195;-84
2021/07/03 09:28:54;;;;;;;4.27;2.90;;;;;;;24.80;100.00;96009.78;5030880;28;20251;-84
2021/07/03 09:31:21;;;;;;;3.23;2.53;;;;;;;24.60;100.00;96009.59;5030761;28;20225;-84
2021/07/03 09:33:51;;;;;;;3.33;2.13;;;;;;;24.42;100.00;96014.25;5030805;28;20675;-84
2021/07/03 09:36:25;;;;;;;2.30;2.20;;;;;;;24.15;100.00;96006.13;5029757;28;20203;-84
2021/07/03 09:38:54;;;;;;;4.10;2.40;;;;;;;24.31;100.00;96012.47;5030544;28;20190;-84
2021/07/03 09:41:24;;;;;;;5.10;2.07;;;;;;;24.39;100.00;96008.53;5030860;28;20552;-84
2021/07/03 09:43:59;;;;;;;3.07;2.50;;;;;;;24.56;100.00;96000.38;5030544;28;20269;-85
2021/07/03 09:46:28;;;;;;;2.20;1.73;;;;;;;24.55;100.00;95993.41;5030554;28;20209;-85
2021/07/03 09:49:02;;;;;;;3.97;2.10;;;;;;;24.36;100.00;95993.72;5030431;28;20199;-84
2021/07/03 09:51:31;;;;;;;3.20;2.63;;;;;;;24.72;100.00;95990.63;5030982;28;20274;-84
2021/07/03 09:54:00;;;;;;;3.57;2.40;;;;;;;25.10;100.00;95985.03;5030115;28;20231;-84
2021/07/03 09:56:29;;;;;;;2.93;1.93;;;;;;;25.42;100.00;95989.56;5030538;28;20201;-84
2021/07/03 09:58:57;;;;;;;2.43;2.13;;;;;;;25.30;100.00;95997.84;5030449;28;20638;-83
2021/07/03 10:01:24;;;;;;;2.10;1.90;;;;;;;24.94;100.00;95998.59;5030507;28;20203;-84
2021/07/03 10:03:52;;;;;;;5.07;3.00;;;;;;;24.81;100.00;96003.34;5030144;28;20289;-84
2021/07/03 10:06:24;;;;;;;6.07;3.40;;;;;;;24.59;100.00;95995.34;5030109;28;20232;-84
2021/07/03 10:08:57;;;;;;;5.83;4.00;;;;;;;24.51;100.00;95998.47;5030433;28;20611;-84
2021/07/03 10:11:26;;;;;;;3.20;2.57;;;;;;;24.51;100.00;96001.16;5030920;28;20673;-84
2021/07/03 10:14:01;;;;;;;2.50;2.30;;;;;;;24.74;100.00;96008.13;5030262;28;20263;-84
2021/07/03 10:16:30;;;;;;;2.20;2.00;;;;;;;24.58;100.00;96001.78;5030546;28;20221;-84
2021/07/03 10:19:09;;;;;;;4.67;2.60;;;;;;;24.53;100.00;96008.97;5029916;28;20201;-84
2021/07/03 10:21:37;;;;;;;1.50;1.40;;;;;;;24.41;100.00;96009.91;5030024;28;20198;-84
2021/07/03 10:24:16;;;;;;;2.17;2.07;;;;;;;24.39;100.00;96001.28;5030000;28;20202;-84
2021/07/03 10:26:46;;;;;;;1.60;1.50;;;;;;;24.13;100.00;95999.38;5030026;28;20544;-84
2021/07/03 10:29:21;;;;;;;1.40;1.30;;;;;;;24.12;100.00;95997.75;5029736;28;20238;-84
2021/07/03 10:31:49;;;;;;;1.43;1.37;;;;;;;23.88;100.00;95994.50;5030344;28;20605;-84
2021/07/03 10:34:29;;;;;;;2.27;1.30;;;;;;;24.04;100.00;95988.28;5029487;28;20762;-84
2021/07/03 10:36:59;;;;;;;1.87;1.73;;;;;;;24.03;100.00;95986.63;5029903;28;20191;-84
2021/07/03 10:39:31;;;;;;;1.87;1.13;;;;;;;24.20;100.00;95989.25;5029881;28;20253;-84
2021/07/03 10:41:58;;;;;;;1.37;1.27;;;;;;;24.25;100.00;95986.63;5029783;28;20218;-84
2021/07/03 10:44:38;;;;;;;3.43;2.63;;;;;;;24.17;100.00;95989.75;5029794;28;20226;-84
2021/07/03 10:47:10;;;;;;;1.40;1.30;;;;;;;24.41;100.00;95983.06;5029737;28;20716;-84
2021/07/03 10:49:38;;;;;;;1.70;1.60;;;;;;;24.51;100.00;95982.34;5029082;28;20203;-84
2021/07/03 10:52:13;;;;;;;1.60;1.50;;;;;;;24.25;100.00;95986.63;5029924;28;20195;-84
2021/07/03 10:54:41;;;;;;;2.70;1.60;;;;;;;24.25;100.00;95983.09;5028997;28;20237;-84
2021/07/03 10:57:10;;;;;;;2.33;1.80;;;;;;;23.93;100.00;95984.66;5029833;28;20277;-84
2021/07/03 10:59:41;;;;;;;4.50;1.70;;;;;;;24.22;100.00;95968.34;5029631;28;20191;-84
2021/07/03 11:02:10;;;;;;;2.40;1.63;;;;;;;24.36;100.00;95976.81;5029376;28;20775;-84
2021/07/03 11:04:46;;;;;;;5.93;2.13;;;;;;;24.32;100.00;95976.50;5029054;28;20205;-84
2021/07/03 11:07:14;;;;;;;2.43;1.50;;;;;;;24.31;100.00;95980.22;5029444;28;20202;-84
2021/07/03 11:09:41;;;;;;;1.57;1.47;;;;;;;24.26;100.00;95977.50;5029190;28;20287;-83
2021/07/03 11:12:15;;;;;;;1.97;1.50;;;;;;;24.21;100.00;95977.44;5029089;28;20202;-83
2021/07/03 11:14:52;;;;;;;2.23;1.50;;;;;;;24.30;100.00;95965.19;5029109;28;20232;-84
2021/07/03 11:17:21;;;;;;;1.43;1.33;;;;;;;24.29;100.00;95970.81;5029340;28;20187;-84
2021/07/03 11:19:50;;;;;;;1.30;1.23;;;;;;;24.37;100.00;95971.16;5029042;28;20671;-84
2021/07/03 11:22:22;;;;;;;2.73;1.30;;;;;;;24.23;100.00;95969.13;5029116;28;20226;-84
2021/07/03 11:24:51;;;;;;;1.90;1.33;;;;;;;24.26;100.00;95966.75;5029022;28;20199;-84
2021/07/03 11:27:32;;;;;;;2.80;1.23;;;;;;;24.28;100.00;95956.59;5029147;28;20205;-85
2021/07/03 11:30:02;;;;;;;5.20;1.67;;;;;;;24.47;100.00;95948.19;5029208;28;20590;-84
2021/07/03 11:32:29;;;;;;;4.60;1.13;;;;;;;24.69;100.00;95962.38;5028811;28;20635;-84